Terminal Aerodrome Forecast
Issued by NWS

Home | Current Version | Previous Version | Text Only | Print | Product List | Glossary On
Versions: 1 2 3 4 5 6 7 8 9 10 11 12 13 14 15
000
FTUS44 KLZK 262300
TAFHOT
TAF
KHOT 262320Z 2700/2724 13007KT 4SM -DZ BR VCSH SCT004 OVC012
      TEMPO 2700/2704 2SM -RA OVC004
     FM270400 15005KT 4SM -RADZ SCT004 OVC007 WS020/19045KT
      TEMPO 2709/2713 1SM RA BR OVC003
     FM271700 33007KT 4SM -DZ BR VCSH BKN006 OVC015=

USA.gov is the U.S. government's official web portal to all federal, state and local government web resources and services.